Time;durP1;ratioP1;P1;durP2;ratioP2;P2;SDS_P1;SDS_P2;PMS_P1;PMS_P2;Temp;Humidity;BMP_temperature;BMP_pressure;BME280_temperature;BME280_humidity;BME280_pressure;Samples;Min_cycle;Max_cycle;Signal;HPM_P1;HPM_P2
2022/11/02 00:01:19;;;;;;;0.80;0.80;;;10.30;99.90;;;;;;5025135;28;20202;-68
2022/11/02 00:03:46;;;;;;;0.90;0.90;;;10.40;99.90;;;;;;5025459;28;20251;-67
2022/11/02 00:06:13;;;;;;;1.23;1.10;;;10.40;99.90;;;;;;5026715;28;20185;-66
2022/11/02 00:08:40;;;;;;;0.87;0.87;;;10.30;99.90;;;;;;5026820;28;20253;-68
2022/11/02 00:11:06;;;;;;;1.67;1.10;;;10.40;99.90;;;;;;5015382;28;20205;-68
2022/11/02 00:13:34;;;;;;;1.20;1.00;;;10.30;99.90;;;;;;5011098;28;20197;-68
2022/11/02 00:16:02;;;;;;;1.20;0.90;;;10.40;99.90;;;;;;5011729;28;20215;-69
2022/11/02 00:18:31;;;;;;;1.20;1.20;;;10.30;99.90;;;;;;5011776;28;20221;-69
2022/11/02 00:20:58;;;;;;;0.87;0.87;;;10.30;99.90;;;;;;5011121;28;20201;-69
2022/11/02 00:23:25;;;;;;;1.00;1.00;;;10.20;99.90;;;;;;5010609;28;20595;-68
2022/11/02 00:25:53;;;;;;;1.20;1.10;;;10.20;99.90;;;;;;5011226;28;20219;-68
2022/11/02 00:28:20;;;;;;;1.33;1.17;;;10.10;99.90;;;;;;5011739;28;20225;-66
2022/11/02 00:30:47;;;;;;;1.33;1.10;;;10.10;99.90;;;;;;5003154;28;20202;-67
2022/11/02 00:33:14;;;;;;;1.30;1.20;;;10.00;99.90;;;;;;5011264;28;20197;-67
2022/11/02 00:35:44;;;;;;;1.10;1.10;;;10.00;99.90;;;;;;5003942;28;20217;-68
2022/11/02 00:38:10;;;;;;;1.63;1.20;;;9.90;99.90;;;;;;5020207;28;20205;-70
2022/11/02 00:40:37;;;;;;;1.00;1.00;;;10.00;99.90;;;;;;5023948;28;20293;-67
2022/11/02 00:43:04;;;;;;;1.10;1.10;;;10.10;99.90;;;;;;5022151;28;20248;-67
2022/11/02 00:45:31;;;;;;;1.27;1.00;;;10.10;99.90;;;;;;5020976;28;20205;-70
2022/11/02 00:47:58;;;;;;;1.20;1.10;;;10.20;99.90;;;;;;5016002;28;20201;-68
2022/11/02 00:50:25;;;;;;;1.00;1.00;;;10.20;99.90;;;;;;5016732;28;20206;-68
2022/11/02 00:52:53;;;;;;;1.27;1.17;;;10.20;99.90;;;;;;5015720;28;20198;-67
2022/11/02 00:55:20;;;;;;;0.82;0.82;;;10.20;99.90;;;;;;5015721;28;20239;-69
2022/11/02 00:57:47;;;;;;;1.07;0.90;;;10.30;99.90;;;;;;5015491;28;20205;-68
2022/11/02 01:00:15;;;;;;;1.27;1.17;;;10.30;99.90;;;;;;5015536;28;20225;-68
2022/11/02 01:02:43;;;;;;;0.97;0.97;;;10.40;99.90;;;;;;5014929;28;20593;-70
2022/11/02 01:05:10;;;;;;;1.23;1.13;;;10.40;99.90;;;;;;5023333;28;20276;-69
2022/11/02 01:07:37;;;;;;;0.90;0.90;;;10.40;99.90;;;;;;5016219;28;20575;-68
2022/11/02 01:10:06;;;;;;;0.90;0.90;;;10.40;99.90;;;;;;5015435;28;20225;-68
2022/11/02 01:12:33;;;;;;;0.83;0.83;;;10.40;99.90;;;;;;5016155;28;20216;-69
2022/11/02 01:15:00;;;;;;;1.10;1.00;;;10.40;99.90;;;;;;5015058;28;20655;-68
2022/11/02 01:17:27;;;;;;;0.87;0.87;;;10.40;99.90;;;;;;5017843;28;20236;-66
2022/11/02 01:19:54;;;;;;;1.00;1.00;;;10.40;99.90;;;;;;5017457;28;20227;-69
2022/11/02 01:22:20;;;;;;;0.90;0.90;;;10.30;99.90;;;;;;5016212;28;20677;-69
2022/11/02 01:24:47;;;;;;;0.80;0.80;;;10.20;99.90;;;;;;5015660;28;20198;-68
2022/11/02 01:27:15;;;;;;;0.80;0.80;;;10.20;99.90;;;;;;5014664;28;20258;-68
2022/11/02 01:29:42;;;;;;;0.80;0.80;;;10.30;99.90;;;;;;5014309;28;20235;-68
2022/11/02 01:32:09;;;;;;;0.90;0.90;;;10.30;99.90;;;;;;5014766;28;20255;-69
2022/11/02 01:34:36;;;;;;;0.70;0.70;;;10.40;99.90;;;;;;5013288;28;20224;-68
2022/11/02 01:37:03;;;;;;;0.90;0.90;;;10.40;99.90;;;;;;5014586;28;20729;-68
2022/11/02 01:39:29;;;;;;;1.00;1.00;;;10.50;99.90;;;;;;5013961;28;20233;-68
2022/11/02 01:41:56;;;;;;;0.97;0.97;;;10.50;99.90;;;;;;5014458;28;20239;-68
2022/11/02 01:44:29;;;;;;;1.60;1.00;;;10.40;99.90;;;;;;5013589;28;20568;-68
2022/11/02 01:47:00;;;;;;;0.80;0.80;;;10.40;99.90;;;;;;5014309;28;20577;-67
2022/11/02 01:49:27;;;;;;;0.90;0.90;;;10.40;99.90;;;;;;5013436;28;20228;-68
2022/11/02 01:51:59;;;;;;;0.90;0.90;;;10.40;99.90;;;;;;5014854;28;20203;-69
2022/11/02 01:54:30;;;;;;;0.87;0.87;;;10.30;99.90;;;;;;5013603;28;20205;-68
2022/11/02 01:57:02;;;;;;;1.17;1.10;;;10.30;99.90;;;;;;5017001;28;20580;-68
2022/11/02 01:59:35;;;;;;;1.10;1.00;;;10.20;99.90;;;;;;5016369;28;20670;-68
2022/11/02 02:02:04;;;;;;;1.13;1.03;;;10.20;99.90;;;;;;5013463;28;20221;-67
2022/11/02 02:04:33;;;;;;;1.00;0.90;;;10.10;99.90;;;;;;5012581;28;20569;-69
2022/11/02 02:07:01;;;;;;;1.33;1.10;;;10.10;99.90;;;;;;5014236;28;20205;-69
2022/11/02 02:09:28;;;;;;;0.80;0.80;;;10.20;99.90;;;;;;5012145;28;20221;-69
2022/11/02 02:11:55;;;;;;;1.17;1.07;;;10.20;99.90;;;;;;5015547;28;20648;-65
2022/11/02 02:14:22;;;;;;;0.90;0.90;;;10.20;99.90;;;;;;5016032;28;20201;-68
2022/11/02 02:17:08;;;;;;;0.97;0.90;;;10.20;99.90;;;;;;5006770;28;20201;-68
2022/11/02 02:19:45;;;;;;;0.90;0.90;;;10.30;99.90;;;;;;5017771;28;20232;-68
2022/11/02 02:22:29;;;;;;;1.00;0.97;;;10.30;99.90;;;;;;5032747;28;20315;-68
2022/11/02 02:25:12;;;;;;;1.00;0.97;;;10.30;99.90;;;;;;5021413;28;20209;-67
2022/11/02 02:27:55;;;;;;;1.20;1.10;;;10.40;99.90;;;;;;5027372;28;20236;-68
2022/11/02 02:30:22;;;;;;;1.43;1.03;;;10.40;99.90;;;;;;5021155;28;20260;-68
2022/11/02 02:32:53;;;;;;;0.77;0.77;;;10.40;99.90;;;;;;5018191;28;20221;-69
2022/11/02 02:35:26;;;;;;;1.00;0.93;;;10.50;99.90;;;;;;5017985;28;20208;-68
2022/11/02 02:37:57;;;;;;;1.00;1.00;;;10.50;99.90;;;;;;5014856;28;20233;-69
2022/11/02 02:40:30;;;;;;;1.13;1.07;;;10.50;99.90;;;;;;5013611;28;20209;-68
2022/11/02 02:43:03;;;;;;;0.90;0.90;;;10.50;99.90;;;;;;5012832;28;20710;-69
2022/11/02 02:45:35;;;;;;;1.03;1.00;;;10.60;99.90;;;;;;5010381;28;20394;-68
2022/11/02 02:48:06;;;;;;;1.20;1.10;;;10.50;99.90;;;;;;5013496;28;20608;-69
2022/11/02 02:50:37;;;;;;;1.00;1.00;;;10.60;99.90;;;;;;5013496;28;20663;-64
2022/11/02 02:53:07;;;;;;;0.87;0.87;;;10.70;99.90;;;;;;5014544;28;20553;-68
2022/11/02 02:55:39;;;;;;;0.90;0.90;;;10.70;99.90;;;;;;5015290;28;20220;-69
2022/11/02 02:58:14;;;;;;;0.90;0.90;;;10.70;99.90;;;;;;5008516;28;20277;-68
2022/11/02 03:00:41;;;;;;;1.13;1.00;;;10.70;99.90;;;;;;5016899;28;20204;-68
2022/11/02 03:03:09;;;;;;;0.90;0.90;;;10.70;99.90;;;;;;5014588;28;20221;-67
2022/11/02 03:05:37;;;;;;;1.50;1.40;;;10.70;99.90;;;;;;5016256;28;20223;-68
2022/11/02 03:08:07;;;;;;;1.07;1.07;;;10.70;99.90;;;;;;5014585;28;20209;-68
2022/11/02 03:10:42;;;;;;;1.17;1.07;;;10.70;99.90;;;;;;5016020;28;20220;-67
2022/11/02 03:13:29;;;;;;;0.97;0.90;;;10.60;99.90;;;;;;5019307;28;20288;-69
2022/11/02 03:16:01;;;;;;;1.10;0.97;;;10.60;99.90;;;;;;5014188;28;20265;-66
2022/11/02 03:18:36;;;;;;;1.70;1.30;;;10.60;99.90;;;;;;5021422;28;20320;-69
2022/11/02 03:21:12;;;;;;;1.10;1.10;;;10.60;99.90;;;;;;5029384;28;20652;-67
2022/11/02 03:23:43;;;;;;;0.80;0.80;;;10.50;99.90;;;;;;5020324;28;20300;-68
2022/11/02 03:26:17;;;;;;;0.97;0.97;;;10.50;99.90;;;;;;5019257;28;20661;-67
2022/11/02 03:28:57;;;;;;;1.43;1.10;;;10.50;99.90;;;;;;5017580;28;20753;-70
2022/11/02 03:31:34;;;;;;;1.13;1.07;;;10.50;99.90;;;;;;5023623;28;20264;-67
2022/11/02 03:34:06;;;;;;;0.97;0.93;;;10.40;99.90;;;;;;5021236;28;20201;-67
2022/11/02 03:36:37;;;;;;;1.07;1.07;;;10.50;99.90;;;;;;5027951;28;20236;-65
2022/11/02 03:39:08;;;;;;;0.80;0.80;;;10.40;99.90;;;;;;5019265;28;20312;-66
2022/11/02 03:41:37;;;;;;;1.30;1.13;;;10.40;99.90;;;;;;5020126;28;20292;-66
2022/11/02 03:44:08;;;;;;;1.83;1.10;;;10.40;99.90;;;;;;5018464;28;20223;-67
2022/11/02 03:46:38;;;;;;;1.00;1.00;;;10.40;99.90;;;;;;5015788;28;20220;-67
2022/11/02 03:49:07;;;;;;;1.13;1.10;;;10.40;99.90;;;;;;5016271;28;20220;-69
2022/11/02 03:51:37;;;;;;;0.93;0.93;;;10.40;99.90;;;;;;5015848;28;20621;-68
2022/11/02 03:54:09;;;;;;;1.07;0.80;;;10.40;99.90;;;;;;5019475;28;20261;-68
2022/11/02 03:56:40;;;;;;;1.30;1.20;;;10.50;99.90;;;;;;5017441;28;20288;-66
2022/11/02 03:59:08;;;;;;;1.20;1.20;;;10.40;99.90;;;;;;5014771;28;20260;-68
2022/11/02 04:01:39;;;;;;;1.10;1.00;;;10.40;99.90;;;;;;5017343;28;20212;-68
2022/11/02 04:04:06;;;;;;;1.13;1.07;;;10.30;99.90;;;;;;5013430;28;20703;-67
2022/11/02 04:06:33;;;;;;;0.90;0.90;;;10.30;99.90;;;;;;5012951;28;20292;-69
2022/11/02 04:09:00;;;;;;;1.27;1.17;;;10.30;99.90;;;;;;5012896;28;20313;-69
2022/11/02 04:19:38;;;;;;;1.03;1.00;;;10.40;99.90;;;;;;5011651;28;20217;-67
2022/11/02 04:27:39;;;;;;;1.00;1.00;;;10.40;99.90;;;;;;5024484;28;20204;-67
2022/11/02 04:30:09;;;;;;;1.97;1.20;;;10.50;99.90;;;;;;5016545;28;20225;-68
2022/11/02 04:35:24;;;;;;;1.20;1.10;;;10.50;99.90;;;;;;5011797;28;20199;-68
2022/11/02 04:40:35;;;;;;;1.17;1.07;;;10.50;99.90;;;;;;5013944;28;20204;-67
2022/11/02 04:43:02;;;;;;;1.13;1.13;;;10.50;99.90;;;;;;5015330;28;20231;-67
2022/11/02 04:45:30;;;;;;;1.00;1.00;;;10.50;99.90;;;;;;5016380;28;20202;-66
2022/11/02 04:48:00;;;;;;;1.27;1.17;;;10.50;99.90;;;;;;5015800;28;20580;-66
2022/11/02 04:50:27;;;;;;;1.17;1.03;;;10.50;99.90;;;;;;5015164;28;20212;-68
2022/11/02 04:52:57;;;;;;;0.90;0.90;;;10.50;99.90;;;;;;5014730;28;20296;-68
2022/11/02 04:55:25;;;;;;;1.27;1.17;;;10.60;99.90;;;;;;5014999;28;20554;-68
2022/11/02 04:57:52;;;;;;;1.30;1.27;;;10.50;99.90;;;;;;5017871;28;20560;-67
2022/11/02 05:00:20;;;;;;;1.20;1.10;;;10.60;99.90;;;;;;5015072;28;20221;-67
2022/11/02 05:02:49;;;;;;;1.20;1.10;;;10.60;99.90;;;;;;5014191;28;20606;-67
2022/11/02 05:05:16;;;;;;;1.10;1.10;;;10.60;99.90;;;;;;5014944;28;20206;-68
2022/11/02 05:07:43;;;;;;;1.60;1.10;;;10.70;99.90;;;;;;5015085;28;20197;-69
2022/11/02 05:10:10;;;;;;;1.13;1.10;;;10.70;99.90;;;;;;5015585;28;20225;-67
2022/11/02 05:12:38;;;;;;;1.30;1.20;;;10.70;99.90;;;;;;5015414;28;20703;-66
2022/11/02 05:15:05;;;;;;;0.97;0.97;;;10.80;99.90;;;;;;5017391;28;20694;-67
2022/11/02 05:17:32;;;;;;;1.10;1.10;;;10.80;99.90;;;;;;5018485;28;20197;-68
2022/11/02 05:20:00;;;;;;;1.20;1.10;;;10.80;99.90;;;;;;5017598;28;20221;-67
2022/11/02 05:22:27;;;;;;;1.10;1.00;;;10.90;99.90;;;;;;5014991;28;20208;-66
2022/11/02 05:24:54;;;;;;;1.93;1.37;;;10.80;99.90;;;;;;5015328;28;20221;-67
2022/11/02 05:27:21;;;;;;;1.03;1.03;;;10.80;99.90;;;;;;5014591;28;20210;-68
2022/11/02 05:29:47;;;;;;;1.10;1.10;;;10.80;99.90;;;;;;5013942;28;20894;-66
2022/11/02 05:32:14;;;;;;;1.17;1.10;;;10.90;99.90;;;;;;5014255;28;20300;-67
2022/11/02 05:34:41;;;;;;;1.30;1.20;;;10.90;99.90;;;;;;5013794;28;20573;-67
2022/11/02 05:37:09;;;;;;;1.43;1.20;;;10.90;99.90;;;;;;5013721;28;20684;-67
2022/11/02 05:39:36;;;;;;;1.03;1.03;;;11.00;99.90;;;;;;5013470;28;20240;-67
2022/11/02 05:42:03;;;;;;;1.37;1.30;;;11.00;99.90;;;;;;5014074;28;20644;-68
2022/11/02 05:44:30;;;;;;;1.30;1.20;;;11.00;99.90;;;;;;5013163;28;20213;-66
2022/11/02 05:46:56;;;;;;;1.17;1.07;;;11.00;99.90;;;;;;5013900;28;20212;-67
2022/11/02 05:49:23;;;;;;;1.03;1.00;;;11.10;99.90;;;;;;5015153;28;20327;-68
2022/11/02 05:51:50;;;;;;;1.30;1.20;;;11.20;99.90;;;;;;5016750;28;20587;-68
2022/11/02 05:54:18;;;;;;;1.13;1.03;;;11.30;99.90;;;;;;5014236;28;20193;-67
2022/11/02 05:56:45;;;;;;;1.10;1.10;;;11.40;99.90;;;;;;5016605;28;20207;-68
2022/11/02 05:59:12;;;;;;;1.10;1.03;;;11.50;99.90;;;;;;5015957;28;20252;-66
2022/11/02 06:01:39;;;;;;;1.00;1.00;;;11.60;99.90;;;;;;5013176;28;20209;-66
2022/11/02 06:04:06;;;;;;;1.20;1.10;;;11.60;99.90;;;;;;5014090;28;20264;-67
2022/11/02 06:06:33;;;;;;;1.07;1.07;;;11.60;99.90;;;;;;5011398;28;20210;-67
2022/11/02 06:09:00;;;;;;;1.43;1.20;;;11.60;99.90;;;;;;5011191;28;20355;-67
2022/11/02 06:11:28;;;;;;;1.00;1.00;;;11.60;99.90;;;;;;5013151;28;20209;-68
2022/11/02 06:13:55;;;;;;;1.10;1.10;;;11.60;99.90;;;;;;5012333;28;20796;-67
2022/11/02 06:16:21;;;;;;;1.10;1.10;;;11.60;99.90;;;;;;5013586;28;20208;-67
2022/11/02 06:18:48;;;;;;;1.10;1.10;;;11.60;99.90;;;;;;5014134;28;20236;-68
2022/11/02 06:21:15;;;;;;;1.37;1.27;;;11.70;99.90;;;;;;5024372;28;20268;-67
2022/11/02 06:23:42;;;;;;;1.00;1.00;;;11.80;99.90;;;;;;5026000;28;20240;-68
2022/11/02 06:26:19;;;;;;;1.10;0.97;;;11.80;99.90;;;;;;5031905;28;20232;-68
2022/11/02 06:28:47;;;;;;;1.20;1.10;;;11.90;99.90;;;;;;5030353;28;20244;-68
2022/11/02 06:31:16;;;;;;;0.97;0.97;;;12.00;99.90;;;;;;5019333;28;20638;-68
2022/11/02 06:33:44;;;;;;;1.20;1.20;;;12.10;99.90;;;;;;5014282;28;20201;-68
2022/11/02 06:36:11;;;;;;;1.27;1.17;;;12.20;99.90;;;;;;5017679;28;20208;-68
2022/11/02 06:38:38;;;;;;;1.40;1.20;;;12.20;99.90;;;;;;5018411;28;20311;-67
2022/11/02 06:41:05;;;;;;;1.27;1.23;;;12.20;99.90;;;;;;5013589;28;20208;-67
2022/11/02 06:43:32;;;;;;;1.70;1.30;;;12.10;99.90;;;;;;5013582;28;20588;-66
2022/11/02 06:46:01;;;;;;;1.30;1.20;;;12.20;99.90;;;;;;5012592;28;20656;-66
2022/11/02 06:48:28;;;;;;;1.40;1.30;;;12.20;99.90;;;;;;5012467;28;20272;-67
2022/11/02 06:50:55;;;;;;;1.40;1.30;;;12.20;99.90;;;;;;5012904;28;20201;-68
2022/11/02 06:53:21;;;;;;;1.30;1.20;;;12.20;99.90;;;;;;5016693;28;20269;-67
2022/11/02 06:55:53;;;;;;;1.07;1.07;;;12.20;99.90;;;;;;5020334;28;20295;-65
2022/11/02 06:58:21;;;;;;;1.30;1.20;;;12.20;99.90;;;;;;5015311;28;20225;-67
2022/11/02 07:00:48;;;;;;;1.37;1.20;;;12.30;99.90;;;;;;5012524;28;20201;-66
2022/11/02 07:03:16;;;;;;;1.40;1.30;;;12.40;99.90;;;;;;5011820;28;20202;-67
2022/11/02 07:05:49;;;;;;;1.10;1.10;;;12.50;99.90;;;;;;5011876;28;20213;-66
2022/11/02 07:08:16;;;;;;;1.40;1.30;;;12.50;99.90;;;;;;5010757;28;20567;-67
2022/11/02 07:10:42;;;;;;;1.10;1.10;;;12.60;99.90;;;;;;5013038;28;20201;-67
2022/11/02 07:13:09;;;;;;;1.20;1.10;;;12.70;99.90;;;;;;5020865;28;20211;-66
2022/11/02 07:15:36;;;;;;;1.20;1.10;;;12.80;99.90;;;;;;5021771;28;20209;-67
2022/11/02 07:18:04;;;;;;;0.90;0.90;;;12.90;99.90;;;;;;5018351;28;20205;-66
2022/11/02 07:20:33;;;;;;;1.00;1.00;;;13.00;99.90;;;;;;5020036;28;20229;-66
2022/11/02 07:23:01;;;;;;;0.93;0.93;;;13.20;99.90;;;;;;5016110;28;20205;-66
2022/11/02 07:25:30;;;;;;;1.13;1.00;;;13.30;99.90;;;;;;5012871;28;20227;-67
2022/11/02 07:27:58;;;;;;;0.80;0.80;;;13.30;99.90;;;;;;5012938;28;20202;-67
2022/11/02 07:30:25;;;;;;;1.20;1.10;;;13.40;99.90;;;;;;5015522;28;20656;-66
2022/11/02 07:32:52;;;;;;;0.87;0.87;;;13.50;99.90;;;;;;5011261;28;20209;-67
2022/11/02 07:35:19;;;;;;;0.90;0.90;;;13.60;99.90;;;;;;5014093;28;20591;-66
2022/11/02 07:37:57;;;;;;;0.90;0.90;;;13.70;99.90;;;;;;5014044;28;20295;-67
2022/11/02 07:40:23;;;;;;;1.33;1.23;;;13.80;99.90;;;;;;5012660;28;20668;-67
2022/11/02 07:42:52;;;;;;;0.90;0.90;;;13.80;99.90;;;;;;5011882;28;20205;-67
2022/11/02 07:45:19;;;;;;;1.10;1.10;;;13.80;99.90;;;;;;5012481;28;21448;-66
2022/11/02 07:47:46;;;;;;;1.00;1.00;;;13.90;99.90;;;;;;5013144;28;20197;-67
2022/11/02 07:50:16;;;;;;;1.20;1.10;;;13.90;99.90;;;;;;5012060;28;20232;-65
2022/11/02 07:52:46;;;;;;;1.00;1.00;;;14.00;99.90;;;;;;5012167;28;20209;-66
2022/11/02 07:55:16;;;;;;;1.10;1.00;;;14.10;99.90;;;;;;5012482;28;20201;-67
2022/11/02 07:57:43;;;;;;;1.40;1.30;;;14.00;99.90;;;;;;5011460;28;20213;-68
2022/11/02 08:00:11;;;;;;;1.20;1.10;;;14.10;99.90;;;;;;5012439;28;20225;-67
2022/11/02 08:02:38;;;;;;;0.90;0.90;;;14.20;99.90;;;;;;5015386;28;20237;-66
2022/11/02 08:05:06;;;;;;;1.40;1.17;;;14.20;99.90;;;;;;5014476;28;20221;-65
2022/11/02 08:07:33;;;;;;;1.57;1.47;;;14.30;99.90;;;;;;5021018;28;20213;-67
2022/11/02 08:10:00;;;;;;;1.07;1.07;;;14.30;99.90;;;;;;5017052;28;20221;-67
2022/11/02 08:12:28;;;;;;;1.30;1.20;;;14.30;99.90;;;;;;5016892;28;20205;-67
2022/11/02 08:14:55;;;;;;;1.17;1.03;;;14.30;99.90;;;;;;5016441;28;20277;-68
2022/11/02 08:17:22;;;;;;;1.03;0.93;;;14.40;99.90;;;;;;5019776;28;20197;-68
2022/11/02 08:19:49;;;;;;;0.93;0.93;;;14.40;99.90;;;;;;5011162;28;20229;-66
2022/11/02 08:22:16;;;;;;;2.23;1.43;;;14.50;99.90;;;;;;5018174;28;20202;-67
2022/11/02 08:24:42;;;;;;;1.10;1.00;;;14.40;99.90;;;;;;5008808;28;20231;-65
2022/11/02 08:27:09;;;;;;;1.30;1.20;;;14.50;99.90;;;;;;5016906;28;20205;-66
2022/11/02 08:29:37;;;;;;;1.00;1.00;;;14.50;99.90;;;;;;5016392;28;20229;-67
2022/11/02 08:32:05;;;;;;;1.10;1.10;;;14.50;99.90;;;;;;5016557;28;20201;-66
2022/11/02 08:36:59;;;;;;;1.03;1.00;;;14.50;99.90;;;;;;4999446;28;20206;-62
2022/11/02 08:39:28;;;;;;;1.37;1.10;;;14.50;99.90;;;;;;4981815;28;20208;-62
2022/11/02 08:41:55;;;;;;;1.07;1.07;;;14.60;99.90;;;;;;4996554;28;20577;-62
2022/11/02 08:44:21;;;;;;;1.37;1.17;;;14.60;99.90;;;;;;4995678;28;20232;-63
2022/11/02 08:46:49;;;;;;;0.87;0.87;;;14.60;99.90;;;;;;4987768;28;20202;-63
2022/11/02 08:49:17;;;;;;;1.30;1.20;;;14.70;99.90;;;;;;4995476;28;20207;-62
2022/11/02 08:51:45;;;;;;;1.03;1.00;;;14.70;99.90;;;;;;4994628;28;20590;-62
2022/11/02 08:54:12;;;;;;;1.20;1.10;;;14.80;99.90;;;;;;4993256;28;20204;-63
2022/11/02 08:56:39;;;;;;;1.20;1.10;;;14.90;99.90;;;;;;4995586;28;20225;-62
2022/11/02 08:59:06;;;;;;;1.10;1.00;;;14.90;99.90;;;;;;4994981;28;20206;-63
2022/11/02 09:01:32;;;;;;;0.90;0.90;;;15.00;99.90;;;;;;4992629;28;20244;-62
2022/11/02 09:04:01;;;;;;;1.23;1.20;;;15.00;99.90;;;;;;4993880;28;20289;-62
2022/11/02 09:06:28;;;;;;;1.10;1.00;;;15.10;99.90;;;;;;4995528;28;20253;-62
2022/11/02 09:08:55;;;;;;;2.43;1.20;;;15.20;99.90;;;;;;4991902;28;20210;-62
2022/11/02 09:11:22;;;;;;;1.20;1.10;;;15.30;99.90;;;;;;4996063;28;20305;-64
2022/11/02 09:13:49;;;;;;;1.20;1.10;;;15.30;99.90;;;;;;4993517;28;20229;-62
2022/11/02 09:16:16;;;;;;;1.23;1.20;;;15.30;99.90;;;;;;4986679;28;20318;-63
2022/11/02 09:18:42;;;;;;;0.90;0.83;;;15.40;99.90;;;;;;4991471;28;20237;-63
2022/11/02 09:21:11;;;;;;;1.10;1.00;;;15.60;99.90;;;;;;4996146;28;20285;-64
2022/11/02 09:23:38;;;;;;;1.03;1.03;;;15.60;99.90;;;;;;4996500;28;20668;-62
2022/11/02 09:26:05;;;;;;;0.80;0.80;;;15.70;99.90;;;;;;4996420;28;20249;-64
2022/11/02 09:28:31;;;;;;;1.10;1.00;;;15.80;99.90;;;;;;4992934;28;20257;-64
2022/11/02 09:30:58;;;;;;;1.00;0.90;;;15.90;99.90;;;;;;4995712;28;20294;-63
2022/11/02 09:33:25;;;;;;;1.50;1.20;;;16.00;99.90;;;;;;4992469;28;20201;-65
2022/11/02 09:35:52;;;;;;;1.03;0.90;;;16.10;99.90;;;;;;4996443;28;20229;-64
2022/11/02 09:38:21;;;;;;;1.10;1.00;;;16.20;99.90;;;;;;4990556;28;20281;-65
2022/11/02 09:40:56;;;;;;;0.80;0.80;;;16.10;99.90;;;;;;4991803;28;20293;-65
2022/11/02 09:43:34;;;;;;;0.70;0.70;;;16.00;99.90;;;;;;4988680;28;20202;-64
2022/11/02 09:46:05;;;;;;;0.90;0.90;;;16.00;99.90;;;;;;4994517;28;20279;-64
2022/11/02 09:48:34;;;;;;;1.00;1.00;;;15.90;99.90;;;;;;4994601;28;20610;-66
2022/11/02 09:51:05;;;;;;;1.08;1.00;;;15.80;99.90;;;;;;4993909;28;20289;-65
2022/11/02 09:53:50;;;;;;;1.07;1.00;;;15.80;99.90;;;;;;4991481;28;20198;-63
2022/11/02 09:56:19;;;;;;;0.90;0.90;;;15.80;99.90;;;;;;4992179;28;20221;-63
2022/11/02 09:58:51;;;;;;;1.03;1.03;;;15.80;99.90;;;;;;4994711;28;20243;-63
2022/11/02 10:01:28;;;;;;;1.10;1.10;;;15.90;99.90;;;;;;4983471;28;20374;-63
2022/11/02 10:04:40;;;;;;;1.40;1.20;;;16.00;99.90;;;;;;4982869;28;20197;-62
2022/11/02 10:07:16;;;;;;;1.27;0.97;;;16.10;99.90;;;;;;4983992;28;20227;-63
2022/11/02 10:09:53;;;;;;;0.80;0.80;;;16.20;99.90;;;;;;4983965;28;20691;-64
2022/11/02 10:12:28;;;;;;;0.80;0.80;;;16.20;99.90;;;;;;4976398;28;20281;-63
2022/11/02 10:15:03;;;;;;;1.03;1.00;;;16.30;99.90;;;;;;4980317;28;20228;-63
2022/11/02 10:17:35;;;;;;;1.23;1.20;;;16.40;99.90;;;;;;4978104;28;20281;-63
2022/11/02 10:20:07;;;;;;;1.20;1.13;;;16.40;99.90;;;;;;4983541;28;20215;-64
2022/11/02 10:22:40;;;;;;;1.10;1.10;;;16.50;99.90;;;;;;4983507;28;20627;-64
2022/11/02 10:25:16;;;;;;;0.67;0.67;;;16.50;99.90;;;;;;4981667;28;20253;-64
2022/11/02 10:27:46;;;;;;;1.17;1.07;;;16.40;99.90;;;;;;4982372;28;20288;-64
2022/11/02 10:30:15;;;;;;;1.20;1.20;;;16.40;99.90;;;;;;4984489;28;20204;-64
2022/11/02 10:32:44;;;;;;;1.30;1.20;;;16.30;99.90;;;;;;4987454;28;20700;-63
2022/11/02 10:35:19;;;;;;;1.37;1.00;;;16.30;99.90;;;;;;4983781;28;20221;-63
2022/11/02 10:37:59;;;;;;;1.30;1.20;;;16.40;99.90;;;;;;4984956;28;20236;-66
2022/11/02 10:40:44;;;;;;;1.13;1.03;;;16.50;99.90;;;;;;4982652;28;20848;-63
2022/11/02 10:43:21;;;;;;;1.20;1.10;;;16.60;99.90;;;;;;4979339;28;20214;-62
2022/11/02 10:46:13;;;;;;;1.20;1.10;;;16.70;99.90;;;;;;4980483;28;20232;-63
2022/11/02 10:48:51;;;;;;;1.10;1.10;;;16.80;99.90;;;;;;4988291;28;20230;-63
2022/11/02 10:51:20;;;;;;;1.20;1.10;;;16.90;99.90;;;;;;4976138;28;20230;-63
2022/11/02 10:53:50;;;;;;;0.90;0.90;;;17.10;99.90;;;;;;4977299;28;20198;-63
2022/11/02 10:56:21;;;;;;;1.20;1.10;;;17.10;99.90;;;;;;4976440;28;20226;-62
2022/11/02 10:58:58;;;;;;;1.00;1.00;;;17.20;99.90;;;;;;4979074;28;20202;-63
2022/11/02 11:01:25;;;;;;;1.20;1.10;;;17.20;99.90;;;;;;4985046;28;20240;-65
2022/11/02 11:03:57;;;;;;;1.20;1.10;;;17.40;99.90;;;;;;4974441;28;20202;-64
2022/11/02 11:06:26;;;;;;;0.97;0.97;;;17.20;99.90;;;;;;4976976;28;20709;-63
2022/11/02 11:08:59;;;;;;;1.33;1.10;;;17.00;99.90;;;;;;4980113;28;20199;-63
2022/11/02 11:11:30;;;;;;;1.00;1.00;;;17.00;99.90;;;;;;4980452;28;20206;-63
2022/11/02 11:14:00;;;;;;;1.30;1.20;;;17.00;99.90;;;;;;4978689;28;20660;-63
2022/11/02 11:16:41;;;;;;;1.30;1.20;;;16.90;99.90;;;;;;4983592;28;20226;-64
2022/11/02 11:19:19;;;;;;;1.40;1.10;;;16.80;99.90;;;;;;4976699;28;20202;-64
2022/11/02 11:21:48;;;;;;;1.30;1.20;;;16.70;99.90;;;;;;4977894;28;20224;-63
2022/11/02 11:24:29;;;;;;;1.23;1.13;;;16.70;99.90;;;;;;4978805;28;20203;-64
2022/11/02 11:27:18;;;;;;;1.10;1.10;;;16.70;99.90;;;;;;4982686;28;20574;-64
2022/11/02 11:29:52;;;;;;;1.17;1.10;;;16.70;99.90;;;;;;4981591;28;20217;-64
2022/11/02 11:32:21;;;;;;;0.90;0.90;;;16.80;99.90;;;;;;4986531;28;20198;-65
2022/11/02 11:34:55;;;;;;;1.17;1.00;;;16.90;99.90;;;;;;4985554;28;20632;-62
2022/11/02 11:37:23;;;;;;;1.10;1.00;;;17.00;99.90;;;;;;4987643;28;20198;-63
2022/11/02 11:39:53;;;;;;;1.43;1.33;;;17.00;99.90;;;;;;4984946;28;20206;-65
2022/11/02 11:42:23;;;;;;;1.17;1.07;;;17.00;99.90;;;;;;4983550;28;20254;-64
2022/11/02 11:45:00;;;;;;;1.17;1.10;;;16.90;99.90;;;;;;4976961;28;20704;-63
2022/11/02 11:47:30;;;;;;;1.17;1.10;;;16.60;99.90;;;;;;4979012;28;20206;-63
2022/11/02 11:50:01;;;;;;;1.43;1.20;;;16.60;99.90;;;;;;4986320;28;20297;-64
2022/11/02 11:52:31;;;;;;;1.30;1.20;;;16.60;99.90;;;;;;4978805;28;20198;-63
2022/11/02 11:54:59;;;;;;;1.27;1.17;;;16.60;99.90;;;;;;4987784;28;20222;-66
2022/11/02 11:57:30;;;;;;;0.90;0.90;;;16.80;99.90;;;;;;4984193;28;20201;-63
2022/11/02 12:00:00;;;;;;;1.00;1.00;;;16.90;99.90;;;;;;4981293;28;20201;-64
2022/11/02 12:02:29;;;;;;;1.57;1.20;;;17.00;99.90;;;;;;4976988;28;20261;-64
2022/11/02 12:05:01;;;;;;;1.03;1.03;;;17.00;99.90;;;;;;4980968;28;20242;-65
2022/11/02 12:07:44;;;;;;;1.33;1.23;;;17.10;99.90;;;;;;4979927;28;20253;-63
2022/11/02 12:10:17;;;;;;;1.30;1.20;;;17.10;99.90;;;;;;4982025;28;20224;-64
2022/11/02 12:13:00;;;;;;;1.03;1.03;;;17.10;99.90;;;;;;4977596;28;20217;-65
2022/11/02 12:15:43;;;;;;;1.33;1.23;;;17.20;99.90;;;;;;4989537;28;20305;-62
2022/11/02 12:18:33;;;;;;;1.30;1.20;;;17.10;99.90;;;;;;4982810;28;20665;-62
2022/11/02 12:21:11;;;;;;;1.27;1.00;;;17.10;99.90;;;;;;4989994;28;20202;-62
2022/11/02 12:24:07;;;;;;;0.80;0.80;;;17.10;99.90;;;;;;4989587;28;20233;-63
2022/11/02 12:26:50;;;;;;;1.00;1.00;;;17.10;99.90;;;;;;4985316;28;20705;-64
2022/11/02 12:29:38;;;;;;;1.33;1.10;;;17.20;99.90;;;;;;4985927;28;20217;-64
2022/11/02 12:32:15;;;;;;;1.40;1.30;;;17.40;99.90;;;;;;4981990;28;20202;-63
2022/11/02 12:35:02;;;;;;;1.87;1.20;;;17.50;99.90;;;;;;4989048;28;20234;-65
2022/11/02 12:37:42;;;;;;;1.23;1.13;;;17.60;99.90;;;;;;4983023;28;20244;-65
2022/11/02 12:40:23;;;;;;;1.27;1.17;;;17.50;99.90;;;;;;4987693;28;20206;-64
2022/11/02 12:42:59;;;;;;;1.13;1.03;;;17.60;99.90;;;;;;4978116;28;20544;-63
2022/11/02 12:45:41;;;;;;;1.00;0.90;;;17.50;99.90;;;;;;4977712;28;20238;-63
2022/11/02 12:48:09;;;;;;;1.10;1.00;;;17.60;99.90;;;;;;4987711;28;20210;-63
2022/11/02 12:50:52;;;;;;;1.10;1.00;;;17.70;99.90;;;;;;4994652;28;20217;-63
2022/11/02 12:53:34;;;;;;;1.90;1.20;;;17.80;99.90;;;;;;4990207;28;20225;-63
2022/11/02 12:56:05;;;;;;;0.80;0.80;;;17.70;99.90;;;;;;4995208;28;20225;-63
2022/11/02 12:58:36;;;;;;;0.97;0.97;;;17.50;99.90;;;;;;4994403;28;20667;-64
2022/11/02 13:01:12;;;;;;;1.20;1.10;;;17.50;99.90;;;;;;4986264;28;20202;-63
2022/11/02 13:03:48;;;;;;;1.27;1.20;;;17.40;99.90;;;;;;4993730;28;20208;-65
2022/11/02 13:06:21;;;;;;;1.30;1.20;;;17.30;99.90;;;;;;4994110;28;20221;-63
2022/11/02 13:08:53;;;;;;;1.30;1.20;;;17.20;99.90;;;;;;4993234;28;20198;-63
2022/11/02 13:11:24;;;;;;;1.03;1.00;;;17.20;99.90;;;;;;4997706;28;20210;-62
2022/11/02 13:13:55;;;;;;;1.27;1.17;;;17.20;99.90;;;;;;4993218;28;20205;-62
2022/11/02 13:16:31;;;;;;;1.00;1.00;;;17.20;99.90;;;;;;4993608;28;20256;-63
2022/11/02 13:19:02;;;;;;;1.43;1.10;;;17.20;99.90;;;;;;4986835;28;20212;-63
2022/11/02 13:21:36;;;;;;;1.23;1.13;;;17.10;99.90;;;;;;4993849;28;20237;-62
2022/11/02 13:24:03;;;;;;;1.27;1.17;;;17.20;99.90;;;;;;4997467;28;20244;-65
2022/11/02 13:26:36;;;;;;;0.90;0.90;;;17.30;99.90;;;;;;4999104;28;20233;-62